createdAt,value
2018-07-19T00:01:56.958Z,19.85
2018-07-19T00:04:27.036Z,19.78
2018-07-19T00:06:57.023Z,19.80
2018-07-19T00:09:26.790Z,19.81
2018-07-19T00:11:56.908Z,19.84
2018-07-19T00:14:26.805Z,19.82
2018-07-19T00:16:56.954Z,19.81
2018-07-19T00:19:26.580Z,19.83
2018-07-19T00:21:56.600Z,19.83
2018-07-19T00:24:26.412Z,19.91
2018-07-19T00:26:56.484Z,19.79
2018-07-19T00:29:26.518Z,19.75
2018-07-19T00:31:56.725Z,19.82
2018-07-19T00:34:26.863Z,19.80
2018-07-19T00:36:56.557Z,19.68
2018-07-19T00:39:26.364Z,19.77
2018-07-19T00:41:56.392Z,19.89
2018-07-19T00:44:26.303Z,19.83
2018-07-19T00:46:56.424Z,19.84
2018-07-19T00:49:26.337Z,19.88
2018-07-19T00:51:55.948Z,19.77
2018-07-19T00:54:25.604Z,19.75
2018-07-19T00:56:55.161Z,19.69
2018-07-19T00:59:24.883Z,19.78
2018-07-19T01:01:55.042Z,19.84
2018-07-19T01:04:24.698Z,19.73
2018-07-19T01:06:54.499Z,19.83
2018-07-19T01:09:24.634Z,19.82
2018-07-19T01:11:54.538Z,19.76
2018-07-19T01:14:24.434Z,19.81
2018-07-19T01:16:54.600Z,19.77
2018-07-19T01:19:24.714Z,19.71
2018-07-19T01:21:54.751Z,19.77
2018-07-19T01:24:24.371Z,19.77
2018-07-19T01:26:53.912Z,19.76
2018-07-19T01:29:23.752Z,19.79
2018-07-19T01:31:53.570Z,19.80
2018-07-19T01:34:23.266Z,19.73
2018-07-19T01:36:53.236Z,19.72
2018-07-19T01:39:22.741Z,19.70
2018-07-19T01:42:45.374Z,19.67
2018-07-19T01:45:15.253Z,19.72
2018-07-19T01:47:45.592Z,19.65
2018-07-19T01:50:15.408Z,19.67
2018-07-19T01:52:45.515Z,19.65
2018-07-19T01:55:15.233Z,19.64
2018-07-19T01:57:45.002Z,19.68
2018-07-19T02:00:14.558Z,19.69
2018-07-19T02:02:44.111Z,19.71
2018-07-19T02:05:14.320Z,19.71
2018-07-19T02:07:44.409Z,19.71
2018-07-19T02:10:14.334Z,19.62
2018-07-19T02:12:44.338Z,19.70
2018-07-19T02:15:14.627Z,19.64
2018-07-19T02:17:44.376Z,19.64
2018-07-19T02:20:14.263Z,19.69
2018-07-19T02:22:44.494Z,19.77
2018-07-19T02:25:14.167Z,19.72
2018-07-19T02:27:43.975Z,19.69
2018-07-19T02:30:13.669Z,19.65
2018-07-19T02:32:43.359Z,19.69
2018-07-19T02:35:12.902Z,19.66
2018-07-19T02:37:43.185Z,19.71
2018-07-19T02:40:13.113Z,19.79
2018-07-19T02:42:43.051Z,19.65
2018-07-19T02:45:12.866Z,19.70
2018-07-19T02:47:43.174Z,19.70
2018-07-19T02:50:13.050Z,19.69
2018-07-19T02:52:42.922Z,19.70
2018-07-19T02:55:12.782Z,19.76
2018-07-19T02:57:42.522Z,19.61
2018-07-19T03:00:12.447Z,19.62
2018-07-19T03:02:42.207Z,19.62
2018-07-19T03:05:11.785Z,19.64
2018-07-19T03:07:41.959Z,19.66
2018-07-19T03:10:11.557Z,19.57
2018-07-19T03:12:41.382Z,19.69
2018-07-19T03:15:11.337Z,19.63
2018-07-19T03:17:41.404Z,19.56
2018-07-19T03:20:11.519Z,19.25
2018-07-19T03:22:41.262Z,19.18
2018-07-19T03:25:11.299Z,19.21
2018-07-19T03:27:40.875Z,19.15
2018-07-19T03:30:11.846Z,18.98
2018-07-19T03:32:41.422Z,18.97
2018-07-19T03:35:11.209Z,19.13
2018-07-19T03:37:41.234Z,18.89
2018-07-19T03:40:10.978Z,18.91
2018-07-19T03:42:40.459Z,18.88
2018-07-19T03:45:10.311Z,18.87
2018-07-19T03:47:40.011Z,18.79
2018-07-19T03:50:10.256Z,18.63
2018-07-19T03:52:39.952Z,18.70
2018-07-19T03:55:10.372Z,18.68
2018-07-19T03:57:40.156Z,18.64
2018-07-19T04:00:10.315Z,18.59
2018-07-19T04:02:40.051Z,18.58
2018-07-19T04:05:09.835Z,18.57
2018-07-19T04:07:39.824Z,18.51
2018-07-19T04:10:09.445Z,18.55
2018-07-19T04:12:38.986Z,18.56
2018-07-19T04:15:09.145Z,18.72
2018-07-19T04:17:46.091Z,18.62
2018-07-19T04:20:16.118Z,18.48
2018-07-19T04:22:45.831Z,18.67
2018-07-19T04:25:15.451Z,18.47
2018-07-19T04:27:45.151Z,18.53
2018-07-19T04:30:14.924Z,18.53
2018-07-19T04:32:44.923Z,18.51
2018-07-19T04:35:14.791Z,18.60
2018-07-19T04:37:45.097Z,18.68
2018-07-19T04:40:15.104Z,18.52
2018-07-19T04:42:45.112Z,18.58
2018-07-19T04:45:14.672Z,18.53
2018-07-19T04:47:44.654Z,18.52
2018-07-19T04:50:14.656Z,18.59
2018-07-19T04:52:44.691Z,18.52
2018-07-19T04:55:14.767Z,18.44
2018-07-19T04:57:44.842Z,18.33
2018-07-19T05:00:14.735Z,18.46
2018-07-19T05:02:44.326Z,18.34
2018-07-19T05:05:14.473Z,18.44
2018-07-19T05:07:44.490Z,18.46
2018-07-19T05:10:14.233Z,18.39
2018-07-19T05:12:44.643Z,18.46
2018-07-19T05:15:14.227Z,18.23
2018-07-19T05:17:43.760Z,18.35
2018-07-19T05:20:13.926Z,18.34
2018-07-19T05:22:43.962Z,18.38
2018-07-19T05:25:13.710Z,18.21
2018-07-19T05:27:43.816Z,18.42
2018-07-19T05:30:13.708Z,18.33
2018-07-19T05:32:43.426Z,18.36
2018-07-19T05:35:13.667Z,18.33
2018-07-19T05:37:43.742Z,18.26
2018-07-19T05:40:14.017Z,18.19
2018-07-19T05:42:43.706Z,18.24
2018-07-19T05:45:13.827Z,18.25
2018-07-19T05:47:43.357Z,18.32
2018-07-19T05:50:13.014Z,18.37
2018-07-19T05:52:42.961Z,18.39
2018-07-19T05:55:12.671Z,18.32
2018-07-19T05:57:42.551Z,18.44
2018-07-19T06:00:12.400Z,18.67
2018-07-19T06:02:42.071Z,18.49
2018-07-19T06:05:11.606Z,18.61
2018-07-19T06:07:42.076Z,18.50
2018-07-19T06:10:11.913Z,18.61
2018-07-19T06:12:41.573Z,18.51
2018-07-19T06:15:12.013Z,18.58
2018-07-19T06:17:41.659Z,18.45
2018-07-19T06:20:11.614Z,18.56
2018-07-19T06:22:41.367Z,18.47
2018-07-19T06:25:11.107Z,18.38
2018-07-19T06:27:41.290Z,18.38
2018-07-19T06:30:11.085Z,18.37
2018-07-19T06:32:40.793Z,18.43
2018-07-19T06:35:10.936Z,18.30
2018-07-19T06:37:41.036Z,18.29
2018-07-19T06:40:10.906Z,18.33
2018-07-19T06:42:40.914Z,18.38
2018-07-19T06:45:10.854Z,18.16
2018-07-19T06:47:41.434Z,18.26
2018-07-19T06:50:10.999Z,18.32
2018-07-19T06:52:40.917Z,18.09
2018-07-19T06:55:10.463Z,18.18
2018-07-19T06:57:40.155Z,18.12
2018-07-19T07:00:10.406Z,18.14
2018-07-19T07:02:40.031Z,18.11
2018-07-19T07:05:10.104Z,18.19
2018-07-19T07:07:39.879Z,18.21
2018-07-19T07:10:10.154Z,18.25
2018-07-19T07:12:39.878Z,18.34
2018-07-19T07:15:09.886Z,18.15
2018-07-19T07:17:39.480Z,18.42
2018-07-19T07:20:09.330Z,18.41
2018-07-19T07:22:38.934Z,18.25
2018-07-19T07:25:08.453Z,18.37
2018-07-19T07:27:38.744Z,18.45
2018-07-19T07:30:08.738Z,18.44
2018-07-19T07:32:39.190Z,18.48
2018-07-19T07:35:09.710Z,18.37
2018-07-19T07:37:40.124Z,18.39
2018-07-19T07:40:09.947Z,18.53
2018-07-19T07:42:39.622Z,18.56
2018-07-19T07:45:09.634Z,18.75
2018-07-19T07:47:39.964Z,18.87
2018-07-19T07:50:09.831Z,19.00
2018-07-19T07:52:39.521Z,19.08
2018-07-19T07:55:09.559Z,19.09
2018-07-19T07:57:39.137Z,18.95
2018-07-19T08:00:08.735Z,19.03
2018-07-19T08:02:38.874Z,19.00
2018-07-19T08:05:08.845Z,19.08
2018-07-19T08:07:38.816Z,19.30
2018-07-19T08:10:08.623Z,19.26
2018-07-19T08:12:38.650Z,19.29
2018-07-19T08:15:08.890Z,19.31
2018-07-19T08:17:38.674Z,19.51
2018-07-19T08:20:08.817Z,19.26
2018-07-19T08:22:38.655Z,19.42
2018-07-19T08:25:08.963Z,19.48
2018-07-19T08:27:38.871Z,19.21
2018-07-19T08:30:08.593Z,19.57
2018-07-19T08:32:38.614Z,19.48
2018-07-19T08:35:08.270Z,19.21
2018-07-19T08:37:38.350Z,19.40
2018-07-19T08:40:08.035Z,19.17
2018-07-19T08:42:37.870Z,19.23
2018-07-19T08:45:07.806Z,19.52
2018-07-19T08:47:37.578Z,19.51
2018-07-19T08:50:07.745Z,19.61
2018-07-19T08:52:37.632Z,19.65
2018-07-19T08:55:07.472Z,19.68
2018-07-19T08:57:37.645Z,19.35
2018-07-19T09:00:07.844Z,19.58
2018-07-19T09:02:37.486Z,19.82
2018-07-19T09:05:06.995Z,19.83
2018-07-19T09:07:36.752Z,20.01
2018-07-19T09:10:06.691Z,19.86
2018-07-19T09:12:36.954Z,20.28
2018-07-19T09:15:07.132Z,20.53
2018-07-19T09:17:36.878Z,20.40
2018-07-19T09:20:06.474Z,20.61
2018-07-19T09:22:36.239Z,20.46
2018-07-19T09:25:06.630Z,20.28
2018-07-19T09:27:36.611Z,20.44
2018-07-19T09:30:07.586Z,20.09
2018-07-19T09:32:37.366Z,19.90
2018-07-19T09:35:06.922Z,20.09
2018-07-19T09:37:36.612Z,20.03
2018-07-19T09:40:06.390Z,19.87
2018-07-19T09:42:36.990Z,19.97
2018-07-19T09:45:06.678Z,20.02
2018-07-19T09:47:36.897Z,19.88
2018-07-19T09:50:06.611Z,19.90
2018-07-19T09:52:36.198Z,20.14
2018-07-19T09:55:06.130Z,20.08
2018-07-19T09:57:35.839Z,20.37
2018-07-19T10:00:06.532Z,20.15
2018-07-19T10:02:36.774Z,20.40
2018-07-19T10:05:07.017Z,19.96
2018-07-19T10:07:36.534Z,19.80
2018-07-19T10:10:06.167Z,20.12
2018-07-19T10:12:36.142Z,19.72
2018-07-19T10:15:06.380Z,19.87
2018-07-19T10:17:36.308Z,20.31
2018-07-19T10:20:06.327Z,20.32
2018-07-19T10:22:36.142Z,20.20
2018-07-19T10:25:05.826Z,20.17
2018-07-19T10:27:35.578Z,19.73
2018-07-19T10:30:07.698Z,20.06
2018-07-19T10:32:37.821Z,20.09
2018-07-19T10:35:08.066Z,19.96
2018-07-19T10:37:37.896Z,19.98
2018-07-19T10:40:07.755Z,20.10
2018-07-19T10:42:37.366Z,20.16
2018-07-19T10:45:06.980Z,20.18
2018-07-19T10:47:36.698Z,20.07
2018-07-19T10:50:06.517Z,20.12
2018-07-19T10:52:36.682Z,20.35
2018-07-19T10:55:07.024Z,20.23
2018-07-19T10:57:37.402Z,20.62
2018-07-19T11:00:07.242Z,20.54
2018-07-19T11:02:37.150Z,20.21
2018-07-19T11:05:07.109Z,20.33
2018-07-19T11:07:37.080Z,20.57
2018-07-19T11:10:06.875Z,20.43
2018-07-19T11:12:36.987Z,20.51
2018-07-19T11:15:06.985Z,20.44
2018-07-19T11:17:36.512Z,20.31
2018-07-19T11:20:06.442Z,20.60
2018-07-19T11:22:36.084Z,20.51
2018-07-19T11:25:06.205Z,20.49
2018-07-19T11:27:36.074Z,20.65
2018-07-19T11:30:06.532Z,20.50
2018-07-19T11:32:36.437Z,20.93
2018-07-19T11:35:06.335Z,20.69
2018-07-19T11:37:36.335Z,20.59
2018-07-19T11:40:06.576Z,20.57
2018-07-19T11:42:36.284Z,20.22
2018-07-19T11:45:06.218Z,20.35
2018-07-19T11:47:36.022Z,20.05
2018-07-19T11:50:06.429Z,20.06
2018-07-19T11:52:36.360Z,20.04
2018-07-19T11:55:06.190Z,20.10
2018-07-19T11:57:36.185Z,20.31
2018-07-19T12:00:06.744Z,20.06
2018-07-19T12:02:36.725Z,20.12
2018-07-19T12:05:06.856Z,20.03
2018-07-19T12:07:36.763Z,20.07
2018-07-19T12:10:06.926Z,20.16
2018-07-19T12:12:36.603Z,20.22
2018-07-19T12:15:06.598Z,20.41
2018-07-19T12:17:36.487Z,20.36
2018-07-19T12:20:06.748Z,20.48
2018-07-19T12:22:36.835Z,20.42
2018-07-19T12:25:07.206Z,20.41
2018-07-19T12:27:36.880Z,20.45
2018-07-19T12:30:07.275Z,20.52
2018-07-19T12:32:37.487Z,20.79
2018-07-19T12:35:07.443Z,20.64
2018-07-19T12:37:37.931Z,20.53
2018-07-19T12:40:07.662Z,20.52
2018-07-19T12:42:37.575Z,20.57
2018-07-19T12:45:07.479Z,20.36
2018-07-19T12:47:37.354Z,20.11
2018-07-19T12:50:07.015Z,20.53
2018-07-19T12:52:36.843Z,20.58
2018-07-19T12:55:06.386Z,20.38
2018-07-19T12:57:36.454Z,20.67
2018-07-19T13:00:06.502Z,20.86
2018-07-19T13:02:36.175Z,20.68
2018-07-19T13:05:05.792Z,20.73
2018-07-19T13:07:35.773Z,20.54
2018-07-19T13:10:05.675Z,20.39
2018-07-19T13:12:35.900Z,20.36
2018-07-19T13:15:07.179Z,20.44
2018-07-19T13:17:37.003Z,20.43
2018-07-19T13:20:06.846Z,19.97
2018-07-19T13:22:36.714Z,20.35
2018-07-19T13:25:06.706Z,20.56
2018-07-19T13:27:36.278Z,20.56
2018-07-19T13:30:06.707Z,20.56
2018-07-19T13:32:36.212Z,20.54
2018-07-19T13:35:06.080Z,20.46
2018-07-19T13:37:36.205Z,20.12
2018-07-19T13:40:06.126Z,20.44
2018-07-19T13:42:36.221Z,20.31
2018-07-19T13:45:06.096Z,20.05
2018-07-19T13:47:35.961Z,20.16
2018-07-19T13:50:06.410Z,19.96
2018-07-19T13:52:47.076Z,20.20
2018-07-19T13:55:17.095Z,20.10
2018-07-19T13:57:46.782Z,20.03
2018-07-19T14:00:16.443Z,20.18
2018-07-19T14:02:46.309Z,19.88
2018-07-19T14:05:16.181Z,19.90
2018-07-19T14:07:45.887Z,20.04
2018-07-19T14:10:15.507Z,20.01
2018-07-19T14:12:45.467Z,19.94
2018-07-19T14:15:15.483Z,19.76
2018-07-19T14:17:45.240Z,19.78
2018-07-19T14:20:15.039Z,19.78
2018-07-19T14:22:45.452Z,20.04
2018-07-19T14:25:16.168Z,19.88
2018-07-19T14:27:46.166Z,19.82
2018-07-19T14:30:15.853Z,19.87
2018-07-19T14:32:45.784Z,19.80
2018-07-19T14:35:15.831Z,19.65
2018-07-19T14:37:45.876Z,19.65
2018-07-19T14:40:15.600Z,19.81
2018-07-19T14:42:45.350Z,19.54
2018-07-19T14:45:15.682Z,19.63
2018-07-19T14:47:45.517Z,19.69
2018-07-19T14:50:15.750Z,19.61
2018-07-19T14:52:45.921Z,19.53
2018-07-19T14:55:16.657Z,19.66
2018-07-19T14:57:47.151Z,19.72
2018-07-19T15:00:16.991Z,19.76
2018-07-19T15:02:46.631Z,19.51
2018-07-19T15:05:16.494Z,19.56
2018-07-19T15:07:46.397Z,19.71
2018-07-19T15:10:16.211Z,19.64
2018-07-19T15:12:46.003Z,19.54
2018-07-19T15:15:15.953Z,19.67
2018-07-19T15:17:45.721Z,19.58
2018-07-19T15:20:15.357Z,19.66
2018-07-19T15:22:45.463Z,19.62
2018-07-19T15:25:16.231Z,19.66
2018-07-19T15:27:45.922Z,19.46
2018-07-19T15:30:16.705Z,19.44
2018-07-19T15:32:46.839Z,19.12
2018-07-19T15:35:16.370Z,19.32
2018-07-19T15:37:45.967Z,19.23
2018-07-19T15:40:15.911Z,19.25
2018-07-19T15:42:46.388Z,19.15
2018-07-19T15:45:16.886Z,19.10
2018-07-19T15:47:46.692Z,19.15
2018-07-19T15:50:16.600Z,19.24
2018-07-19T15:52:46.785Z,19.39
2018-07-19T15:55:17.135Z,19.23
2018-07-19T15:57:47.072Z,19.23
2018-07-19T16:00:16.974Z,19.38
2018-07-19T16:02:46.669Z,19.35
2018-07-19T16:05:16.814Z,19.15
2018-07-19T16:07:46.464Z,19.39
2018-07-19T16:10:16.004Z,19.20
2018-07-19T16:12:45.843Z,19.21
2018-07-19T16:15:15.507Z,19.15
2018-07-19T16:17:45.465Z,19.23
2018-07-19T16:20:15.223Z,19.29
2018-07-19T16:22:45.116Z,19.31
2018-07-19T16:25:15.305Z,19.40
2018-07-19T16:27:44.970Z,19.23
2018-07-19T16:30:14.741Z,19.10
2018-07-19T16:32:44.668Z,19.10
2018-07-19T16:35:14.553Z,19.15
2018-07-19T16:37:44.160Z,19.28
2018-07-19T16:40:13.951Z,19.20
2018-07-19T16:42:43.622Z,19.29
2018-07-19T16:45:13.138Z,19.20
2018-07-19T16:47:43.131Z,19.19
2018-07-19T16:50:12.816Z,19.14
2018-07-19T16:52:42.771Z,19.17
2018-07-19T16:55:13.001Z,19.18
2018-07-19T16:57:42.655Z,19.42
2018-07-19T17:00:12.573Z,19.46
2018-07-19T17:02:42.428Z,19.67
2018-07-19T17:05:12.226Z,19.29
2018-07-19T17:07:41.982Z,19.28
2018-07-19T17:10:12.614Z,19.13
2018-07-19T17:12:42.202Z,19.22
2018-07-19T17:15:11.703Z,19.10
2018-07-19T17:17:41.263Z,19.14
2018-07-19T17:20:11.056Z,19.10
2018-07-19T17:22:41.232Z,19.08
2018-07-19T17:25:11.746Z,19.06
2018-07-19T17:27:42.319Z,18.92
2018-07-19T17:30:12.080Z,18.92
2018-07-19T17:32:42.324Z,18.87
2018-07-19T17:35:12.645Z,19.15
2018-07-19T17:37:42.658Z,19.04
2018-07-19T17:40:12.550Z,18.95
2018-07-19T17:42:42.214Z,18.86
2018-07-19T17:45:11.766Z,18.98
2018-07-19T17:47:41.498Z,18.77
2018-07-19T17:50:11.414Z,18.81
2018-07-19T17:52:41.114Z,18.83
2018-07-19T17:55:12.227Z,18.88
2018-07-19T17:57:42.175Z,18.73
2018-07-19T18:00:12.622Z,18.71
2018-07-19T18:02:42.735Z,18.72
2018-07-19T18:05:12.758Z,18.72
2018-07-19T18:07:42.350Z,18.73
2018-07-19T18:10:12.107Z,18.71
2018-07-19T18:12:41.998Z,18.73
2018-07-19T18:15:12.038Z,18.71
2018-07-19T18:17:42.080Z,18.75
2018-07-19T18:20:11.553Z,18.85
2018-07-19T18:22:41.236Z,18.96
2018-07-19T18:25:11.191Z,18.97
2018-07-19T18:27:40.968Z,18.85
2018-07-19T18:30:17.878Z,18.86
2018-07-19T18:32:47.958Z,18.85
2018-07-19T18:35:18.091Z,19.00
2018-07-19T18:37:47.862Z,18.98
2018-07-19T18:40:18.014Z,18.90
2018-07-19T18:42:48.129Z,18.92
2018-07-19T18:45:18.163Z,19.02
2018-07-19T18:47:47.968Z,18.96
2018-07-19T18:50:18.291Z,19.05
2018-07-19T18:52:47.838Z,18.98
2018-07-19T18:55:17.391Z,19.07
2018-07-19T18:57:47.318Z,18.88
2018-07-19T19:00:17.238Z,18.86
2018-07-19T19:02:47.476Z,19.09
2018-07-19T19:05:17.240Z,19.01
2018-07-19T19:07:48.774Z,18.98
2018-07-19T19:10:18.382Z,18.99
2018-07-19T19:12:48.544Z,19.10
2018-07-19T19:15:18.478Z,19.16
2018-07-19T19:17:48.322Z,19.10
2018-07-19T19:20:18.427Z,18.91
2018-07-19T19:22:48.069Z,19.10
2018-07-19T19:25:18.302Z,19.26
2018-07-19T19:27:47.890Z,18.99
2018-07-19T19:30:17.584Z,19.20
2018-07-19T19:32:47.754Z,19.16
2018-07-19T19:35:17.706Z,19.13
2018-07-19T19:37:47.698Z,19.12
2018-07-19T19:40:18.229Z,19.19
2018-07-19T19:42:48.390Z,19.07
2018-07-19T19:45:18.502Z,19.22
2018-07-19T19:47:48.476Z,19.08
2018-07-19T19:50:18.818Z,18.94
2018-07-19T19:52:48.803Z,19.12
2018-07-19T19:55:19.037Z,19.21
2018-07-19T19:57:48.977Z,19.13
2018-07-19T20:00:18.694Z,19.04
2018-07-19T20:02:48.209Z,19.07
2018-07-19T20:05:17.918Z,19.09
2018-07-19T20:07:47.742Z,19.06
2018-07-19T20:10:17.635Z,19.07
2018-07-19T20:12:47.449Z,19.12
2018-07-19T20:15:17.346Z,19.09
2018-07-19T20:17:47.406Z,19.18
2018-07-19T20:20:17.728Z,19.15
2018-07-19T20:22:47.750Z,19.29
2018-07-19T20:25:17.858Z,19.26
2018-07-19T20:27:47.646Z,19.26
2018-07-19T20:30:17.366Z,19.32
2018-07-19T20:32:47.217Z,19.37
2018-07-19T20:35:16.810Z,19.40
2018-07-19T20:37:46.494Z,19.43
2018-07-19T20:40:16.479Z,19.54
2018-07-19T20:42:46.161Z,19.51
2018-07-19T20:45:16.138Z,19.60
2018-07-19T20:47:46.246Z,19.68
2018-07-19T20:50:16.271Z,19.66
2018-07-19T20:52:45.996Z,19.84
2018-07-19T20:55:15.816Z,19.71
2018-07-19T20:57:45.810Z,19.60
2018-07-19T21:00:15.710Z,19.62
2018-07-19T21:02:45.282Z,19.81
2018-07-19T21:05:15.948Z,19.79
2018-07-19T21:07:45.642Z,19.81
2018-07-19T21:10:15.907Z,19.69
2018-07-19T21:12:45.614Z,19.75
2018-07-19T21:15:15.656Z,19.69
2018-07-19T21:17:45.415Z,19.59
2018-07-19T21:20:15.390Z,19.73
2018-07-19T21:22:45.394Z,19.67
2018-07-19T21:25:15.322Z,19.62
2018-07-19T21:27:45.879Z,19.53
2018-07-19T21:30:15.756Z,19.62
2018-07-19T21:32:46.122Z,19.69
2018-07-19T21:35:15.821Z,19.51
2018-07-19T21:37:45.708Z,19.58
2018-07-19T21:40:15.623Z,19.48
2018-07-19T21:42:45.536Z,19.58
2018-07-19T21:45:15.352Z,19.66
2018-07-19T21:47:45.300Z,19.54
2018-07-19T21:50:15.079Z,19.46
2018-07-19T21:52:44.859Z,19.41
2018-07-19T21:55:14.502Z,19.34
2018-07-19T21:57:44.748Z,19.38
2018-07-19T22:00:14.715Z,19.37
2018-07-19T22:02:45.088Z,19.38
2018-07-19T22:05:15.056Z,19.29
2018-07-19T22:07:45.110Z,19.29
2018-07-19T22:10:14.713Z,19.25
2018-07-19T22:12:44.499Z,19.26
2018-07-19T22:15:14.162Z,19.41
2018-07-19T22:17:43.720Z,19.29
2018-07-19T22:20:13.557Z,19.37
2018-07-19T22:22:43.115Z,19.38
2018-07-19T22:25:12.720Z,19.39
2018-07-19T22:27:42.671Z,19.44
2018-07-19T22:30:12.503Z,19.43
2018-07-19T22:32:42.795Z,19.60
2018-07-19T22:35:12.670Z,19.42
2018-07-19T22:37:42.568Z,19.58
2018-07-19T22:40:12.306Z,19.47
2018-07-19T22:42:41.913Z,19.48
2018-07-19T22:45:11.879Z,19.51
2018-07-19T22:47:41.421Z,19.62
2018-07-19T22:50:11.438Z,19.53
2018-07-19T22:52:41.055Z,19.60
2018-07-19T22:55:10.783Z,19.59
2018-07-19T22:57:40.736Z,19.68
2018-07-19T23:00:10.675Z,19.67
2018-07-19T23:02:40.316Z,19.69
2018-07-19T23:05:10.037Z,19.58
2018-07-19T23:07:39.882Z,19.61
2018-07-19T23:10:09.935Z,19.57
2018-07-19T23:12:39.610Z,19.70
2018-07-19T23:15:09.550Z,19.60
2018-07-19T23:17:39.662Z,19.56
2018-07-19T23:20:09.538Z,19.52
2018-07-19T23:22:39.116Z,19.54
2018-07-19T23:25:09.047Z,19.56
2018-07-19T23:27:38.703Z,19.57
2018-07-19T23:30:08.492Z,19.51
2018-07-19T23:32:38.454Z,19.39
2018-07-19T23:35:08.267Z,19.56
2018-07-19T23:37:39.549Z,19.51
2018-07-19T23:40:16.048Z,19.48
2018-07-19T23:42:50.261Z,19.51
2018-07-19T23:45:31.102Z,19.41
2018-07-19T23:48:01.627Z,19.48
2018-07-19T23:50:31.536Z,19.38
2018-07-19T23:53:01.394Z,19.47
2018-07-19T23:55:30.932Z,19.31
2018-07-19T23:58:00.528Z,19.39
